sensor_id;sensor_type;location;lat;lon;timestamp;temperature;humidity
26541;DHT22;14206;50.202;10.948;2023-03-13T00:01:30;8.30;96.60
26541;DHT22;14206;50.202;10.948;2023-03-13T00:03:57;8.20;96.60
26541;DHT22;14206;50.202;10.948;2023-03-13T00:06:30;8.30;96.60
26541;DHT22;14206;50.202;10.948;2023-03-13T00:09:01;8.30;96.60
26541;DHT22;14206;50.202;10.948;2023-03-13T00:11:28;8.30;96.60
26541;DHT22;14206;50.202;10.948;2023-03-13T00:13:57;8.30;96.60
26541;DHT22;14206;50.202;10.948;2023-03-13T00:16:24;8.30;96.60
26541;DHT22;14206;50.202;10.948;2023-03-13T00:18:52;8.30;96.60
26541;DHT22;14206;50.202;10.948;2023-03-13T00:21:22;8.30;96.60
26541;DHT22;14206;50.202;10.948;2023-03-13T00:23:49;8.30;96.60
26541;DHT22;14206;50.202;10.948;2023-03-13T00:26:19;8.30;96.60
26541;DHT22;14206;50.202;10.948;2023-03-13T00:28:47;8.30;96.60
26541;DHT22;14206;50.202;10.948;2023-03-13T00:31:16;8.40;96.60
26541;DHT22;14206;50.202;10.948;2023-03-13T00:33:46;8.40;96.60
26541;DHT22;14206;50.202;10.948;2023-03-13T00:36:25;8.40;96.60
26541;DHT22;14206;50.202;10.948;2023-03-13T00:38:53;8.50;96.60
26541;DHT22;14206;50.202;10.948;2023-03-13T00:41:22;8.50;96.60
26541;DHT22;14206;50.202;10.948;2023-03-13T00:43:50;8.50;96.60
26541;DHT22;14206;50.202;10.948;2023-03-13T00:46:19;8.50;96.60
26541;DHT22;14206;50.202;10.948;2023-03-13T00:48:47;8.50;96.60
26541;DHT22;14206;50.202;10.948;2023-03-13T00:51:15;8.50;96.60
26541;DHT22;14206;50.202;10.948;2023-03-13T00:53:43;8.50;96.60
26541;DHT22;14206;50.202;10.948;2023-03-13T00:56:12;8.50;96.60
26541;DHT22;14206;50.202;10.948;2023-03-13T00:58:42;8.60;96.60
26541;DHT22;14206;50.202;10.948;2023-03-13T01:01:18;8.60;96.60
26541;DHT22;14206;50.202;10.948;2023-03-13T01:03:51;8.60;96.60
26541;DHT22;14206;50.202;10.948;2023-03-13T01:06:21;8.60;96.60
26541;DHT22;14206;50.202;10.948;2023-03-13T01:08:49;8.60;96.60
26541;DHT22;14206;50.202;10.948;2023-03-13T01:11:24;8.60;96.60
26541;DHT22;14206;50.202;10.948;2023-03-13T01:14:00;8.60;96.60
26541;DHT22;14206;50.202;10.948;2023-03-13T01:16:29;8.60;96.60
26541;DHT22;14206;50.202;10.948;2023-03-13T01:19:00;8.60;96.60
26541;DHT22;14206;50.202;10.948;2023-03-13T01:21:28;8.50;96.60
26541;DHT22;14206;50.202;10.948;2023-03-13T01:23:56;8.50;96.60
26541;DHT22;14206;50.202;10.948;2023-03-13T01:26:23;8.60;96.60
26541;DHT22;14206;50.202;10.948;2023-03-13T01:28:53;8.60;96.60
26541;DHT22;14206;50.202;10.948;2023-03-13T01:31:24;8.60;96.60
26541;DHT22;14206;50.202;10.948;2023-03-13T01:33:54;8.50;96.60
26541;DHT22;14206;50.202;10.948;2023-03-13T01:36:22;8.50;96.60
26541;DHT22;14206;50.202;10.948;2023-03-13T01:38:51;8.40;96.60
26541;DHT22;14206;50.202;10.948;2023-03-13T01:41:19;8.40;96.60
26541;DHT22;14206;50.202;10.948;2023-03-13T01:43:47;8.40;96.60
26541;DHT22;14206;50.202;10.948;2023-03-13T01:46:15;8.40;96.60
26541;DHT22;14206;50.202;10.948;2023-03-13T01:49:09;8.40;96.60
26541;DHT22;14206;50.202;10.948;2023-03-13T01:51:53;8.40;96.60
26541;DHT22;14206;50.202;10.948;2023-03-13T01:54:38;8.50;96.60
26541;DHT22;14206;50.202;10.948;2023-03-13T01:57:15;8.50;96.60
26541;DHT22;14206;50.202;10.948;2023-03-13T02:02:17;8.40;96.60
26541;DHT22;14206;50.202;10.948;2023-03-13T02:04:46;8.40;96.60
26541;DHT22;14206;50.202;10.948;2023-03-13T02:07:17;8.40;96.60
26541;DHT22;14206;50.202;10.948;2023-03-13T02:09:48;8.40;96.60
26541;DHT22;14206;50.202;10.948;2023-03-13T02:12:31;8.40;96.60
26541;DHT22;14206;50.202;10.948;2023-03-13T02:15:03;8.30;96.60
26541;DHT22;14206;50.202;10.948;2023-03-13T02:17:32;8.30;96.60
26541;DHT22;14206;50.202;10.948;2023-03-13T02:20:01;8.30;96.60
26541;DHT22;14206;50.202;10.948;2023-03-13T02:22:52;8.20;96.60
26541;DHT22;14206;50.202;10.948;2023-03-13T02:28:08;8.10;96.60
26541;DHT22;14206;50.202;10.948;2023-03-13T02:30:37;8.00;96.60
26541;DHT22;14206;50.202;10.948;2023-03-13T02:33:05;8.00;96.60
26541;DHT22;14206;50.202;10.948;2023-03-13T02:35:34;8.00;96.60
26541;DHT22;14206;50.202;10.948;2023-03-13T02:38:06;8.00;96.60
26541;DHT22;14206;50.202;10.948;2023-03-13T02:40:36;8.00;96.60
26541;DHT22;14206;50.202;10.948;2023-03-13T02:48:45;8.10;96.60
26541;DHT22;14206;50.202;10.948;2023-03-13T02:51:55;8.10;96.60
26541;DHT22;14206;50.202;10.948;2023-03-13T02:54:16;8.10;96.60
26541;DHT22;14206;50.202;10.948;2023-03-13T02:56:46;8.10;96.60
26541;DHT22;14206;50.202;10.948;2023-03-13T02:59:14;8.10;96.60
26541;DHT22;14206;50.202;10.948;2023-03-13T03:01:43;8.10;96.60
26541;DHT22;14206;50.202;10.948;2023-03-13T03:04:11;8.10;96.60
26541;DHT22;14206;50.202;10.948;2023-03-13T03:06:38;8.20;96.60
26541;DHT22;14206;50.202;10.948;2023-03-13T03:09:06;8.20;96.60
26541;DHT22;14206;50.202;10.948;2023-03-13T03:11:35;8.30;96.60
26541;DHT22;14206;50.202;10.948;2023-03-13T03:14:07;8.30;96.60
26541;DHT22;14206;50.202;10.948;2023-03-13T03:16:38;8.30;96.60
26541;DHT22;14206;50.202;10.948;2023-03-13T03:19:06;8.40;96.60
26541;DHT22;14206;50.202;10.948;2023-03-13T03:21:33;8.40;96.60
26541;DHT22;14206;50.202;10.948;2023-03-13T03:24:01;8.50;96.60
26541;DHT22;14206;50.202;10.948;2023-03-13T03:26:28;8.60;96.50
26541;DHT22;14206;50.202;10.948;2023-03-13T03:28:55;8.60;96.20
26541;DHT22;14206;50.202;10.948;2023-03-13T03:31:22;8.60;96.10
26541;DHT22;14206;50.202;10.948;2023-03-13T03:33:49;8.70;96.00
26541;DHT22;14206;50.202;10.948;2023-03-13T03:36:20;8.70;95.90
26541;DHT22;14206;50.202;10.948;2023-03-13T03:38:48;8.70;95.80
26541;DHT22;14206;50.202;10.948;2023-03-13T03:41:18;8.70;95.90
26541;DHT22;14206;50.202;10.948;2023-03-13T03:43:46;8.70;95.70
26541;DHT22;14206;50.202;10.948;2023-03-13T03:46:16;8.70;95.70
26541;DHT22;14206;50.202;10.948;2023-03-13T03:48:43;8.70;95.80
26541;DHT22;14206;50.202;10.948;2023-03-13T03:51:11;8.70;95.90
26541;DHT22;14206;50.202;10.948;2023-03-13T03:53:40;8.70;96.00
26541;DHT22;14206;50.202;10.948;2023-03-13T03:56:07;8.70;95.70
26541;DHT22;14206;50.202;10.948;2023-03-13T03:58:39;8.70;95.80
26541;DHT22;14206;50.202;10.948;2023-03-13T04:01:12;8.70;95.90
26541;DHT22;14206;50.202;10.948;2023-03-13T04:03:40;8.70;96.00
26541;DHT22;14206;50.202;10.948;2023-03-13T04:06:07;8.70;95.70
26541;DHT22;14206;50.202;10.948;2023-03-13T04:08:35;8.80;95.80
26541;DHT22;14206;50.202;10.948;2023-03-13T04:11:02;8.80;95.70
26541;DHT22;14206;50.202;10.948;2023-03-13T04:13:34;8.80;95.50
26541;DHT22;14206;50.202;10.948;2023-03-13T04:16:09;8.80;95.50
26541;DHT22;14206;50.202;10.948;2023-03-13T04:18:36;8.80;95.50
26541;DHT22;14206;50.202;10.948;2023-03-13T04:21:04;8.80;95.50
26541;DHT22;14206;50.202;10.948;2023-03-13T04:23:42;8.80;95.50
26541;DHT22;14206;50.202;10.948;2023-03-13T04:26:10;8.80;95.30
26541;DHT22;14206;50.202;10.948;2023-03-13T04:28:39;8.80;95.10
26541;DHT22;14206;50.202;10.948;2023-03-13T04:31:07;8.80;95.10
26541;DHT22;14206;50.202;10.948;2023-03-13T04:33:56;8.80;95.30
26541;DHT22;14206;50.202;10.948;2023-03-13T04:36:47;8.80;95.30
26541;DHT22;14206;50.202;10.948;2023-03-13T04:39:40;8.80;95.30
26541;DHT22;14206;50.202;10.948;2023-03-13T04:42:35;8.80;95.30
26541;DHT22;14206;50.202;10.948;2023-03-13T04:45:20;8.80;95.50
26541;DHT22;14206;50.202;10.948;2023-03-13T04:48:06;8.80;95.30
26541;DHT22;14206;50.202;10.948;2023-03-13T04:50:49;8.80;95.30
26541;DHT22;14206;50.202;10.948;2023-03-13T04:53:19;8.80;95.50
26541;DHT22;14206;50.202;10.948;2023-03-13T04:55:53;8.80;95.30
26541;DHT22;14206;50.202;10.948;2023-03-13T04:58:46;8.80;95.60
26541;DHT22;14206;50.202;10.948;2023-03-13T05:01:48;8.80;95.90
26541;DHT22;14206;50.202;10.948;2023-03-13T05:04:32;8.80;96.10
26541;DHT22;14206;50.202;10.948;2023-03-13T05:07:25;8.90;96.30
26541;DHT22;14206;50.202;10.948;2023-03-13T05:10:18;8.90;96.40
26541;DHT22;14206;50.202;10.948;2023-03-13T05:13:09;8.90;96.60
26541;DHT22;14206;50.202;10.948;2023-03-13T05:15:54;8.80;96.60
26541;DHT22;14206;50.202;10.948;2023-03-13T05:18:40;8.80;96.60
26541;DHT22;14206;50.202;10.948;2023-03-13T05:21:33;8.60;96.60
26541;DHT22;14206;50.202;10.948;2023-03-13T05:24:15;8.50;96.60
26541;DHT22;14206;50.202;10.948;2023-03-13T05:27:08;8.40;96.60
26541;DHT22;14206;50.202;10.948;2023-03-13T05:29:44;8.30;96.60
26541;DHT22;14206;50.202;10.948;2023-03-13T05:32:23;8.30;96.60
26541;DHT22;14206;50.202;10.948;2023-03-13T05:35:01;8.20;96.60
26541;DHT22;14206;50.202;10.948;2023-03-13T05:37:47;8.20;96.60
26541;DHT22;14206;50.202;10.948;2023-03-13T05:40:40;8.10;96.60
26541;DHT22;14206;50.202;10.948;2023-03-13T05:43:27;8.10;96.60
26541;DHT22;14206;50.202;10.948;2023-03-13T05:46:14;8.00;96.60
26541;DHT22;14206;50.202;10.948;2023-03-13T05:48:52;8.00;96.60
26541;DHT22;14206;50.202;10.948;2023-03-13T05:51:45;7.90;96.60
26541;DHT22;14206;50.202;10.948;2023-03-13T05:54:42;7.90;96.60
26541;DHT22;14206;50.202;10.948;2023-03-13T05:57:20;7.90;96.60
26541;DHT22;14206;50.202;10.948;2023-03-13T06:00:11;7.80;96.60
26541;DHT22;14206;50.202;10.948;2023-03-13T06:02:56;7.80;96.60
26541;DHT22;14206;50.202;10.948;2023-03-13T06:05:31;7.80;96.60
26541;DHT22;14206;50.202;10.948;2023-03-13T06:08:00;7.80;96.60
26541;DHT22;14206;50.202;10.948;2023-03-13T06:10:28;7.80;96.60
26541;DHT22;14206;50.202;10.948;2023-03-13T06:12:55;7.80;96.60
26541;DHT22;14206;50.202;10.948;2023-03-13T06:15:27;7.90;96.60
26541;DHT22;14206;50.202;10.948;2023-03-13T06:17:59;7.90;96.60
26541;DHT22;14206;50.202;10.948;2023-03-13T06:20:26;7.90;96.60
26541;DHT22;14206;50.202;10.948;2023-03-13T06:22:53;7.90;96.60
26541;DHT22;14206;50.202;10.948;2023-03-13T06:25:19;8.00;96.60
26541;DHT22;14206;50.202;10.948;2023-03-13T06:27:46;8.00;96.60
26541;DHT22;14206;50.202;10.948;2023-03-13T06:30:13;8.00;96.60
26541;DHT22;14206;50.202;10.948;2023-03-13T06:32:40;8.10;96.60
26541;DHT22;14206;50.202;10.948;2023-03-13T06:35:07;8.10;96.60
26541;DHT22;14206;50.202;10.948;2023-03-13T06:37:34;8.20;96.60
26541;DHT22;14206;50.202;10.948;2023-03-13T06:40:01;8.30;96.60
26541;DHT22;14206;50.202;10.948;2023-03-13T06:42:29;8.30;96.60
26541;DHT22;14206;50.202;10.948;2023-03-13T06:44:56;8.40;96.60
26541;DHT22;14206;50.202;10.948;2023-03-13T06:47:23;8.40;96.60
26541;DHT22;14206;50.202;10.948;2023-03-13T06:49:50;8.50;96.60
26541;DHT22;14206;50.202;10.948;2023-03-13T06:52:16;8.50;96.60
26541;DHT22;14206;50.202;10.948;2023-03-13T06:54:45;8.50;96.60
26541;DHT22;14206;50.202;10.948;2023-03-13T06:57:12;8.50;96.60
26541;DHT22;14206;50.202;10.948;2023-03-13T06:59:39;8.60;96.60
26541;DHT22;14206;50.202;10.948;2023-03-13T07:02:09;8.60;96.60
26541;DHT22;14206;50.202;10.948;2023-03-13T07:04:37;8.60;96.60
26541;DHT22;14206;50.202;10.948;2023-03-13T07:07:04;8.70;96.60
26541;DHT22;14206;50.202;10.948;2023-03-13T07:09:31;8.70;96.60
26541;DHT22;14206;50.202;10.948;2023-03-13T07:11:58;8.70;96.60
26541;DHT22;14206;50.202;10.948;2023-03-13T07:14:25;8.80;96.60
26541;DHT22;14206;50.202;10.948;2023-03-13T07:16:52;8.80;96.60
26541;DHT22;14206;50.202;10.948;2023-03-13T07:19:19;8.90;96.60
26541;DHT22;14206;50.202;10.948;2023-03-13T07:21:46;8.90;96.60
26541;DHT22;14206;50.202;10.948;2023-03-13T07:24:15;8.90;96.60
26541;DHT22;14206;50.202;10.948;2023-03-13T07:26:42;9.00;96.60
26541;DHT22;14206;50.202;10.948;2023-03-13T07:29:27;9.00;96.60
26541;DHT22;14206;50.202;10.948;2023-03-13T07:31:54;9.10;96.60
26541;DHT22;14206;50.202;10.948;2023-03-13T07:34:21;9.10;96.60
26541;DHT22;14206;50.202;10.948;2023-03-13T07:36:48;9.20;96.60
26541;DHT22;14206;50.202;10.948;2023-03-13T07:39:15;9.20;96.60
26541;DHT22;14206;50.202;10.948;2023-03-13T07:41:41;9.30;96.60
26541;DHT22;14206;50.202;10.948;2023-03-13T07:44:14;9.30;96.60
26541;DHT22;14206;50.202;10.948;2023-03-13T07:46:41;9.40;96.60
26541;DHT22;14206;50.202;10.948;2023-03-13T07:49:07;9.50;96.60
26541;DHT22;14206;50.202;10.948;2023-03-13T07:51:34;9.50;96.60
26541;DHT22;14206;50.202;10.948;2023-03-13T07:54:09;9.50;96.60
26541;DHT22;14206;50.202;10.948;2023-03-13T07:56:37;9.60;96.60
26541;DHT22;14206;50.202;10.948;2023-03-13T07:59:05;9.50;96.60
26541;DHT22;14206;50.202;10.948;2023-03-13T08:01:32;9.60;96.60
26541;DHT22;14206;50.202;10.948;2023-03-13T08:03:59;9.60;96.60
26541;DHT22;14206;50.202;10.948;2023-03-13T08:06:33;9.60;96.60
26541;DHT22;14206;50.202;10.948;2023-03-13T08:09:03;9.60;96.60
26541;DHT22;14206;50.202;10.948;2023-03-13T08:11:30;9.60;96.60
26541;DHT22;14206;50.202;10.948;2023-03-13T08:13:57;9.70;96.60
26541;DHT22;14206;50.202;10.948;2023-03-13T08:16:29;9.70;96.60
26541;DHT22;14206;50.202;10.948;2023-03-13T08:18:57;9.70;96.60
26541;DHT22;14206;50.202;10.948;2023-03-13T08:21:29;9.80;96.60
26541;DHT22;14206;50.202;10.948;2023-03-13T08:23:58;9.80;96.60
26541;DHT22;14206;50.202;10.948;2023-03-13T08:26:27;9.80;96.60
26541;DHT22;14206;50.202;10.948;2023-03-13T08:29:00;9.90;96.60
26541;DHT22;14206;50.202;10.948;2023-03-13T08:31:32;9.90;96.60
26541;DHT22;14206;50.202;10.948;2023-03-13T08:33:59;9.90;96.60
26541;DHT22;14206;50.202;10.948;2023-03-13T08:36:32;10.00;96.60
26541;DHT22;14206;50.202;10.948;2023-03-13T08:39:02;10.00;96.60
26541;DHT22;14206;50.202;10.948;2023-03-13T08:41:33;10.00;96.60
26541;DHT22;14206;50.202;10.948;2023-03-13T08:44:03;10.10;96.60
26541;DHT22;14206;50.202;10.948;2023-03-13T08:46:32;10.10;96.60
26541;DHT22;14206;50.202;10.948;2023-03-13T08:49:00;10.10;96.60
26541;DHT22;14206;50.202;10.948;2023-03-13T08:51:28;10.20;96.60
26541;DHT22;14206;50.202;10.948;2023-03-13T08:53:55;10.20;96.60
26541;DHT22;14206;50.202;10.948;2023-03-13T08:56:24;10.20;96.60
26541;DHT22;14206;50.202;10.948;2023-03-13T08:58:53;10.30;96.60
26541;DHT22;14206;50.202;10.948;2023-03-13T09:01:23;10.40;96.60
26541;DHT22;14206;50.202;10.948;2023-03-13T09:03:50;10.40;96.60
26541;DHT22;14206;50.202;10.948;2023-03-13T09:06:18;10.40;96.60
26541;DHT22;14206;50.202;10.948;2023-03-13T09:08:45;10.50;96.60
26541;DHT22;14206;50.202;10.948;2023-03-13T09:11:14;10.50;96.60
26541;DHT22;14206;50.202;10.948;2023-03-13T09:13:44;10.60;96.60
26541;DHT22;14206;50.202;10.948;2023-03-13T09:16:16;10.70;96.60
26541;DHT22;14206;50.202;10.948;2023-03-13T09:18:43;10.80;96.60
26541;DHT22;14206;50.202;10.948;2023-03-13T09:21:19;10.90;96.60
26541;DHT22;14206;50.202;10.948;2023-03-13T09:23:46;11.10;96.60
26541;DHT22;14206;50.202;10.948;2023-03-13T09:26:14;11.20;96.60
26541;DHT22;14206;50.202;10.948;2023-03-13T09:28:42;11.40;96.60
26541;DHT22;14206;50.202;10.948;2023-03-13T09:31:12;11.50;96.60
26541;DHT22;14206;50.202;10.948;2023-03-13T09:33:41;11.70;96.60
26541;DHT22;14206;50.202;10.948;2023-03-13T09:36:09;11.80;96.60
26541;DHT22;14206;50.202;10.948;2023-03-13T09:38:37;11.90;96.60
26541;DHT22;14206;50.202;10.948;2023-03-13T09:41:21;11.90;96.60
26541;DHT22;14206;50.202;10.948;2023-03-13T09:44:08;12.00;96.60
26541;DHT22;14206;50.202;10.948;2023-03-13T09:49:28;12.00;96.60
26541;DHT22;14206;50.202;10.948;2023-03-13T09:52:44;12.10;96.60
26541;DHT22;14206;50.202;10.948;2023-03-13T09:55:04;12.10;96.60
26541;DHT22;14206;50.202;10.948;2023-03-13T10:00:25;12.20;96.60
26541;DHT22;14206;50.202;10.948;2023-03-13T10:03:04;12.30;96.60
26541;DHT22;14206;50.202;10.948;2023-03-13T10:05:33;12.40;96.60
26541;DHT22;14206;50.202;10.948;2023-03-13T10:11:08;12.60;96.60
26541;DHT22;14206;50.202;10.948;2023-03-13T10:16:25;12.70;96.60
26541;DHT22;14206;50.202;10.948;2023-03-13T10:18:55;12.80;96.60
26541;DHT22;14206;50.202;10.948;2023-03-13T10:21:30;12.90;96.60
26541;DHT22;14206;50.202;10.948;2023-03-13T10:24:28;12.90;96.60
26541;DHT22;14206;50.202;10.948;2023-03-13T10:26:56;13.10;96.60
26541;DHT22;14206;50.202;10.948;2023-03-13T10:29:25;13.20;96.60
26541;DHT22;14206;50.202;10.948;2023-03-13T10:31:58;13.30;96.60
26541;DHT22;14206;50.202;10.948;2023-03-13T10:34:57;13.30;96.60
26541;DHT22;14206;50.202;10.948;2023-03-13T10:37:39;13.40;96.60
26541;DHT22;14206;50.202;10.948;2023-03-13T10:40:24;13.70;96.30
26541;DHT22;14206;50.202;10.948;2023-03-13T10:42:53;13.80;96.10
26541;DHT22;14206;50.202;10.948;2023-03-13T10:45:25;14.00;95.90
26541;DHT22;14206;50.202;10.948;2023-03-13T10:47:59;14.30;95.00
26541;DHT22;14206;50.202;10.948;2023-03-13T10:50:30;14.50;94.80
26541;DHT22;14206;50.202;10.948;2023-03-13T10:53:11;14.70;92.70
26541;DHT22;14206;50.202;10.948;2023-03-13T10:55:42;14.80;93.30
26541;DHT22;14206;50.202;10.948;2023-03-13T10:58:17;15.00;92.60
26541;DHT22;14206;50.202;10.948;2023-03-13T11:00:45;15.10;91.70
26541;DHT22;14206;50.202;10.948;2023-03-13T11:03:25;15.40;90.70
26541;DHT22;14206;50.202;10.948;2023-03-13T11:05:58;15.60;90.10
26541;DHT22;14206;50.202;10.948;2023-03-13T11:08:27;15.70;89.30
26541;DHT22;14206;50.202;10.948;2023-03-13T11:11:00;15.70;90.00
26541;DHT22;14206;50.202;10.948;2023-03-13T11:13:36;15.70;89.00
26541;DHT22;14206;50.202;10.948;2023-03-13T11:16:23;15.60;89.20
26541;DHT22;14206;50.202;10.948;2023-03-13T11:19:09;15.50;89.00
26541;DHT22;14206;50.202;10.948;2023-03-13T11:25:08;15.80;89.20
26541;DHT22;14206;50.202;10.948;2023-03-13T11:36:05;16.30;87.60
26541;DHT22;14206;50.202;10.948;2023-03-13T11:38:40;16.30;86.60
26541;DHT22;14206;50.202;10.948;2023-03-13T11:46:27;18.20;83.70
26541;DHT22;14206;50.202;10.948;2023-03-13T11:49:59;18.80;82.10
26541;DHT22;14206;50.202;10.948;2023-03-13T11:52:12;19.30;79.60
26541;DHT22;14206;50.202;10.948;2023-03-13T11:55:02;19.30;78.40
26541;DHT22;14206;50.202;10.948;2023-03-13T11:57:43;18.80;80.50
26541;DHT22;14206;50.202;10.948;2023-03-13T12:05:55;17.20;82.10
26541;DHT22;14206;50.202;10.948;2023-03-13T12:08:35;16.70;83.80
26541;DHT22;14206;50.202;10.948;2023-03-13T12:11:39;16.40;85.20
26541;DHT22;14206;50.202;10.948;2023-03-13T12:14:23;16.10;85.50
26541;DHT22;14206;50.202;10.948;2023-03-13T12:19:50;15.60;87.10
26541;DHT22;14206;50.202;10.948;2023-03-13T12:22:31;15.50;86.60
26541;DHT22;14206;50.202;10.948;2023-03-13T12:27:51;15.20;88.20
26541;DHT22;14206;50.202;10.948;2023-03-13T12:30:32;15.10;89.20
26541;DHT22;14206;50.202;10.948;2023-03-13T12:33:25;15.10;88.90
26541;DHT22;14206;50.202;10.948;2023-03-13T12:36:19;15.10;89.30
26541;DHT22;14206;50.202;10.948;2023-03-13T12:44:43;15.00;89.60
26541;DHT22;14206;50.202;10.948;2023-03-13T12:47:16;15.00;89.40
26541;DHT22;14206;50.202;10.948;2023-03-13T12:49:59;15.00;89.20
26541;DHT22;14206;50.202;10.948;2023-03-13T13:00:43;15.60;88.30
26541;DHT22;14206;50.202;10.948;2023-03-13T13:08:40;16.10;87.50
26541;DHT22;14206;50.202;10.948;2023-03-13T13:32:55;17.30;84.00
26541;DHT22;14206;50.202;10.948;2023-03-13T13:35:31;17.70;83.40
26541;DHT22;14206;50.202;10.948;2023-03-13T13:41:19;17.90;82.40
26541;DHT22;14206;50.202;10.948;2023-03-13T13:43:49;17.90;81.40
26541;DHT22;14206;50.202;10.948;2023-03-13T13:46:35;17.80;82.10
26541;DHT22;14206;50.202;10.948;2023-03-13T13:49:20;17.60;83.00
26541;DHT22;14206;50.202;10.948;2023-03-13T13:54:33;17.50;81.90
26541;DHT22;14206;50.202;10.948;2023-03-13T13:57:20;17.30;83.30
26541;DHT22;14206;50.202;10.948;2023-03-13T14:00:00;17.30;83.40
26541;DHT22;14206;50.202;10.948;2023-03-13T14:02:36;17.30;83.00
26541;DHT22;14206;50.202;10.948;2023-03-13T14:05:27;17.20;83.50
26541;DHT22;14206;50.202;10.948;2023-03-13T14:08:13;17.10;83.70
26541;DHT22;14206;50.202;10.948;2023-03-13T14:10:45;17.10;83.60
26541;DHT22;14206;50.202;10.948;2023-03-13T14:13:18;17.20;83.50
26541;DHT22;14206;50.202;10.948;2023-03-13T14:15:50;17.30;83.40
26541;DHT22;14206;50.202;10.948;2023-03-13T14:18:25;17.40;82.70
26541;DHT22;14206;50.202;10.948;2023-03-13T14:21:01;17.50;82.70
26541;DHT22;14206;50.202;10.948;2023-03-13T14:23:30;17.50;82.90
26541;DHT22;14206;50.202;10.948;2023-03-13T14:25:58;17.50;82.10
26541;DHT22;14206;50.202;10.948;2023-03-13T14:28:33;17.60;80.80
26541;DHT22;14206;50.202;10.948;2023-03-13T14:31:00;17.70;81.60
26541;DHT22;14206;50.202;10.948;2023-03-13T14:33:27;17.90;81.00
26541;DHT22;14206;50.202;10.948;2023-03-13T14:35:54;18.10;80.20
26541;DHT22;14206;50.202;10.948;2023-03-13T14:38:26;18.20;78.90
26541;DHT22;14206;50.202;10.948;2023-03-13T14:40:53;18.30;79.50
26541;DHT22;14206;50.202;10.948;2023-03-13T14:43:29;18.20;78.70
26541;DHT22;14206;50.202;10.948;2023-03-13T14:45:58;18.20;79.00
26541;DHT22;14206;50.202;10.948;2023-03-13T14:48:29;18.20;79.70
26541;DHT22;14206;50.202;10.948;2023-03-13T14:51:26;18.20;80.00
26541;DHT22;14206;50.202;10.948;2023-03-13T14:53:58;18.30;79.30
26541;DHT22;14206;50.202;10.948;2023-03-13T14:56:38;18.40;80.20
26541;DHT22;14206;50.202;10.948;2023-03-13T14:59:15;18.50;79.10
26541;DHT22;14206;50.202;10.948;2023-03-13T15:01:44;18.50;78.80
26541;DHT22;14206;50.202;10.948;2023-03-13T15:04:11;18.50;79.40
26541;DHT22;14206;50.202;10.948;2023-03-13T15:06:38;18.60;78.80
26541;DHT22;14206;50.202;10.948;2023-03-13T15:09:21;18.60;77.60
26541;DHT22;14206;50.202;10.948;2023-03-13T15:14:51;18.50;77.60
26541;DHT22;14206;50.202;10.948;2023-03-13T15:17:23;18.40;79.00
26541;DHT22;14206;50.202;10.948;2023-03-13T15:19:55;18.30;78.60
26541;DHT22;14206;50.202;10.948;2023-03-13T15:22:38;18.30;79.10
26541;DHT22;14206;50.202;10.948;2023-03-13T15:25:19;18.30;78.90
26541;DHT22;14206;50.202;10.948;2023-03-13T15:27:47;18.40;79.00
26541;DHT22;14206;50.202;10.948;2023-03-13T15:30:19;18.60;78.90
26541;DHT22;14206;50.202;10.948;2023-03-13T15:32:46;18.60;78.50
26541;DHT22;14206;50.202;10.948;2023-03-13T15:37:49;18.70;78.30
26541;DHT22;14206;50.202;10.948;2023-03-13T15:40:17;18.70;77.50
26541;DHT22;14206;50.202;10.948;2023-03-13T15:42:44;18.70;76.10
26541;DHT22;14206;50.202;10.948;2023-03-13T15:45:11;18.50;77.40
26541;DHT22;14206;50.202;10.948;2023-03-13T15:47:37;18.50;78.00
26541;DHT22;14206;50.202;10.948;2023-03-13T15:50:16;18.40;78.10
26541;DHT22;14206;50.202;10.948;2023-03-13T15:52:43;18.40;78.00
26541;DHT22;14206;50.202;10.948;2023-03-13T15:55:13;18.40;77.90
26541;DHT22;14206;50.202;10.948;2023-03-13T15:57:44;18.30;77.40
26541;DHT22;14206;50.202;10.948;2023-03-13T16:00:24;18.20;78.30
26541;DHT22;14206;50.202;10.948;2023-03-13T16:02:51;18.10;77.70
26541;DHT22;14206;50.202;10.948;2023-03-13T16:05:18;18.00;78.50
26541;DHT22;14206;50.202;10.948;2023-03-13T16:07:45;17.80;78.90
26541;DHT22;14206;50.202;10.948;2023-03-13T16:10:18;17.70;79.50
26541;DHT22;14206;50.202;10.948;2023-03-13T16:12:47;17.50;80.20
26541;DHT22;14206;50.202;10.948;2023-03-13T16:15:14;17.40;80.40
26541;DHT22;14206;50.202;10.948;2023-03-13T16:17:40;17.30;81.20
26541;DHT22;14206;50.202;10.948;2023-03-13T16:20:16;17.20;81.70
26541;DHT22;14206;50.202;10.948;2023-03-13T16:22:43;17.10;82.30
26541;DHT22;14206;50.202;10.948;2023-03-13T16:25:10;17.00;82.60
26541;DHT22;14206;50.202;10.948;2023-03-13T16:27:38;16.90;82.70
26541;DHT22;14206;50.202;10.948;2023-03-13T16:30:32;16.70;82.80
26541;DHT22;14206;50.202;10.948;2023-03-13T16:32:59;16.50;83.40
26541;DHT22;14206;50.202;10.948;2023-03-13T16:35:27;16.40;84.30
26541;DHT22;14206;50.202;10.948;2023-03-13T16:37:55;16.20;84.90
26541;DHT22;14206;50.202;10.948;2023-03-13T16:40:25;16.10;85.10
26541;DHT22;14206;50.202;10.948;2023-03-13T16:42:52;16.10;85.30
26541;DHT22;14206;50.202;10.948;2023-03-13T16:45:19;16.00;85.50
26541;DHT22;14206;50.202;10.948;2023-03-13T16:47:46;16.00;85.50
26541;DHT22;14206;50.202;10.948;2023-03-13T16:50:42;16.00;85.50
26541;DHT22;14206;50.202;10.948;2023-03-13T16:53:12;16.00;85.60
26541;DHT22;14206;50.202;10.948;2023-03-13T16:55:38;16.00;85.80
26541;DHT22;14206;50.202;10.948;2023-03-13T16:58:05;15.90;85.90
26541;DHT22;14206;50.202;10.948;2023-03-13T17:00:32;15.90;85.70
26541;DHT22;14206;50.202;10.948;2023-03-13T17:02:59;15.90;86.10
26541;DHT22;14206;50.202;10.948;2023-03-13T17:05:27;15.80;86.40
26541;DHT22;14206;50.202;10.948;2023-03-13T17:07:54;15.70;86.50
26541;DHT22;14206;50.202;10.948;2023-03-13T17:10:27;15.70;86.50
26541;DHT22;14206;50.202;10.948;2023-03-13T17:12:54;15.60;86.50
26541;DHT22;14206;50.202;10.948;2023-03-13T17:15:23;15.60;86.70
26541;DHT22;14206;50.202;10.948;2023-03-13T17:17:51;15.60;86.80
26541;DHT22;14206;50.202;10.948;2023-03-13T17:20:26;15.50;86.80
26541;DHT22;14206;50.202;10.948;2023-03-13T17:22:54;15.50;86.90
26541;DHT22;14206;50.202;10.948;2023-03-13T17:25:26;15.50;86.70
26541;DHT22;14206;50.202;10.948;2023-03-13T17:27:53;15.50;86.60
26541;DHT22;14206;50.202;10.948;2023-03-13T17:30:26;15.50;86.60
26541;DHT22;14206;50.202;10.948;2023-03-13T17:32:54;15.50;86.80
26541;DHT22;14206;50.202;10.948;2023-03-13T17:35:22;15.50;87.40
26541;DHT22;14206;50.202;10.948;2023-03-13T17:37:50;15.40;83.30
26541;DHT22;14206;50.202;10.948;2023-03-13T17:40:26;15.00;84.50
26541;DHT22;14206;50.202;10.948;2023-03-13T17:42:53;14.20;87.40
26541;DHT22;14206;50.202;10.948;2023-03-13T17:45:22;13.40;90.40